Time;durP1;ratioP1;P1;durP2;ratioP2;P2;SDS_P1;SDS_P2;PMS_P1;PMS_P2;Temp;Humidity;BMP_temperature;BMP_pressure;BME280_temperature;BME280_humidity;BME280_pressure;Samples;Min_cycle;Max_cycle;Signal;HPM_P1;HPM_P2
2021/04/18 00:01:30;;;;;;;21.20;13.07;;;7.10;99.90;;;;;;5064366;28;20202;-79
2021/04/18 00:03:57;;;;;;;18.63;13.93;;;7.20;99.90;;;;;;5060957;28;20230;-79
2021/04/18 00:06:23;;;;;;;23.48;14.45;;;7.20;99.90;;;;;;5064266;28;20257;-79
2021/04/18 00:08:49;;;;;;;23.48;13.50;;;7.10;99.90;;;;;;5063335;28;20273;-79
2021/04/18 00:11:17;;;;;;;18.90;13.90;;;7.00;99.90;;;;;;5062550;28;20213;-79
2021/04/18 00:13:44;;;;;;;19.75;13.35;;;7.10;99.90;;;;;;5061140;28;20226;-79
2021/04/18 00:16:10;;;;;;;16.33;12.13;;;7.10;99.90;;;;;;5059071;28;20603;-79
2021/04/18 00:18:36;;;;;;;20.90;12.77;;;7.00;99.90;;;;;;5058170;28;20549;-79
2021/04/18 00:21:03;;;;;;;17.90;12.70;;;6.90;99.90;;;;;;5058186;28;20490;-79
2021/04/18 00:23:29;;;;;;;21.17;13.63;;;6.90;99.90;;;;;;5057439;28;20219;-79
2021/04/18 00:25:55;;;;;;;15.70;11.55;;;7.00;99.90;;;;;;5057378;28;20231;-79
2021/04/18 00:28:21;;;;;;;23.40;15.43;;;7.00;99.90;;;;;;5057757;28;20215;-79
2021/04/18 00:30:50;;;;;;;25.00;14.38;;;7.00;99.90;;;;;;5076369;28;20207;-78
2021/04/18 00:33:16;;;;;;;21.95;13.43;;;7.00;99.90;;;;;;5057715;28;20234;-79
2021/04/18 00:35:42;;;;;;;20.50;13.13;;;6.80;99.90;;;;;;5059611;28;20226;-79
2021/04/18 00:38:09;;;;;;;20.35;12.90;;;6.70;99.90;;;;;;5057497;28;20700;-79
2021/04/18 00:40:37;;;;;;;18.10;12.52;;;6.70;99.90;;;;;;5057079;28;20233;-79
2021/04/18 00:43:04;;;;;;;22.48;12.30;;;6.70;99.90;;;;;;5057508;28;20255;-79
2021/04/18 00:45:30;;;;;;;14.38;11.30;;;6.70;99.90;;;;;;5058103;28;20314;-79
2021/04/18 00:47:57;;;;;;;23.35;13.93;;;6.80;99.90;;;;;;5057563;28;20280;-79
2021/04/18 00:50:28;;;;;;;28.80;14.65;;;6.80;99.90;;;;;;5057542;28;20234;-79
2021/04/18 00:52:54;;;;;;;18.48;13.70;;;6.90;99.90;;;;;;5058130;28;20706;-79
2021/04/18 00:55:25;;;;;;;16.58;12.40;;;6.90;99.90;;;;;;5058370;28;20210;-79
2021/04/18 00:57:51;;;;;;;22.42;13.15;;;6.90;99.90;;;;;;5058819;28;20555;-79
2021/04/18 01:00:19;;;;;;;21.63;13.35;;;6.90;99.90;;;;;;5057747;28;20558;-78
2021/04/18 01:02:45;;;;;;;19.55;14.55;;;6.80;99.90;;;;;;5057654;28;20223;-79
2021/04/18 01:05:12;;;;;;;22.45;14.02;;;6.90;99.90;;;;;;5056795;28;20226;-79
2021/04/18 01:07:38;;;;;;;14.18;11.35;;;6.90;99.90;;;;;;5056760;28;20221;-79
2021/04/18 01:10:07;;;;;;;21.40;13.05;;;6.80;99.90;;;;;;5056344;28;20234;-78
2021/04/18 01:12:34;;;;;;;23.85;12.75;;;6.90;99.90;;;;;;5056715;28;20258;-78
2021/04/18 01:15:00;;;;;;;22.42;14.43;;;6.90;99.90;;;;;;5060611;28;20593;-79
2021/04/18 01:17:27;;;;;;;16.63;12.20;;;6.90;99.90;;;;;;5055845;28;20279;-79
2021/04/18 01:19:54;;;;;;;29.60;14.38;;;7.00;99.90;;;;;;5056385;28;20238;-79
2021/04/18 01:22:21;;;;;;;19.00;12.95;;;7.10;99.90;;;;;;5055565;28;20254;-79
2021/04/18 01:24:47;;;;;;;21.77;14.45;;;7.10;99.90;;;;;;5055583;28;20642;-77
2021/04/18 01:27:15;;;;;;;22.02;12.45;;;7.10;99.90;;;;;;5055774;28;20573;-79
2021/04/18 01:29:42;;;;;;;22.90;14.70;;;7.10;99.90;;;;;;5055809;28;20658;-78
2021/04/18 01:32:08;;;;;;;19.50;13.30;;;6.90;99.90;;;;;;5055966;28;20668;-77
2021/04/18 01:34:40;;;;;;;20.75;13.52;;;6.80;99.90;;;;;;5055980;28;20233;-78
2021/04/18 01:37:06;;;;;;;20.33;13.68;;;6.80;99.90;;;;;;5056289;28;20187;-78
2021/04/18 01:39:34;;;;;;;20.67;13.80;;;6.80;99.90;;;;;;5055919;28;20195;-78
2021/04/18 01:42:00;;;;;;;17.92;12.20;;;6.90;99.90;;;;;;5055625;28;20254;-78
2021/04/18 01:44:27;;;;;;;15.57;12.95;;;6.90;99.90;;;;;;5056247;28;20755;-78
2021/04/18 01:46:53;;;;;;;21.85;13.40;;;6.90;99.90;;;;;;5055510;28;20582;-78
2021/04/18 01:49:19;;;;;;;25.70;14.57;;;6.90;99.90;;;;;;5055524;28;20269;-78
2021/04/18 01:51:45;;;;;;;24.58;13.80;;;6.90;99.90;;;;;;5055513;28;20226;-78
2021/04/18 01:54:12;;;;;;;23.15;12.48;;;7.00;99.90;;;;;;5055139;28;20230;-79
2021/04/18 01:56:38;;;;;;;20.70;11.75;;;6.90;99.90;;;;;;5055103;28;20215;-79
2021/04/18 01:59:05;;;;;;;24.60;12.70;;;6.90;99.90;;;;;;5055698;28;20245;-79
2021/04/18 02:01:31;;;;;;;19.65;13.50;;;6.90;99.90;;;;;;5055553;28;20231;-78
2021/04/18 02:03:58;;;;;;;21.38;12.18;;;7.00;99.90;;;;;;5055998;28;20250;-79
2021/04/18 02:06:24;;;;;;;20.58;13.68;;;6.90;99.90;;;;;;5056991;28;20203;-79
2021/04/18 02:08:50;;;;;;;25.00;14.02;;;7.00;99.90;;;;;;5055945;28;20673;-79
2021/04/18 02:11:16;;;;;;;26.60;13.63;;;7.00;99.90;;;;;;5056006;28;20579;-79
2021/04/18 02:13:43;;;;;;;25.50;13.70;;;6.90;99.90;;;;;;5056685;28;20778;-78
2021/04/18 02:16:10;;;;;;;22.27;14.50;;;6.90;99.90;;;;;;5058763;28;20558;-78
2021/04/18 02:18:36;;;;;;;21.75;13.95;;;6.90;99.90;;;;;;5059227;28;20604;-79
2021/04/18 02:21:02;;;;;;;22.33;13.68;;;6.90;99.90;;;;;;5067032;28;20558;-78
2021/04/18 02:23:29;;;;;;;23.20;14.25;;;6.90;99.90;;;;;;5069246;28;20234;-78
2021/04/18 02:25:55;;;;;;;18.92;13.63;;;6.90;99.90;;;;;;5073703;28;20203;-78
2021/04/18 02:28:21;;;;;;;17.67;13.45;;;7.00;99.90;;;;;;5063057;28;20672;-78
2021/04/18 02:30:48;;;;;;;21.60;13.32;;;7.00;99.90;;;;;;5056985;28;20203;-78
2021/04/18 02:33:14;;;;;;;20.88;13.50;;;6.80;99.90;;;;;;5056415;28;20234;-78
2021/04/18 02:35:40;;;;;;;21.63;14.00;;;6.80;99.90;;;;;;5063290;28;20210;-78
2021/04/18 02:38:06;;;;;;;21.33;13.88;;;6.90;99.90;;;;;;5074876;28;20187;-77
2021/04/18 02:40:32;;;;;;;21.95;15.35;;;6.90;99.90;;;;;;5076623;28;20194;-78
2021/04/18 02:42:58;;;;;;;18.00;13.57;;;7.00;99.90;;;;;;5070856;28;20223;-78
2021/04/18 02:45:24;;;;;;;21.73;14.60;;;7.40;99.90;;;;;;5061935;28;20206;-78
2021/04/18 02:47:51;;;;;;;21.35;13.50;;;7.10;99.90;;;;;;5057993;28;20206;-78
2021/04/18 02:50:17;;;;;;;20.73;15.10;;;7.10;99.90;;;;;;5059454;28;20565;-79
2021/04/18 02:52:43;;;;;;;22.95;14.55;;;7.10;99.90;;;;;;5061276;28;20250;-79
2021/04/18 02:55:10;;;;;;;22.33;15.35;;;7.10;99.90;;;;;;5059818;28;20234;-78
2021/04/18 02:57:36;;;;;;;24.63;15.60;;;7.10;99.90;;;;;;5059841;28;20246;-78
2021/04/18 03:00:05;;;;;;;21.30;16.95;;;7.10;99.90;;;;;;5059497;28;20237;-79
2021/04/18 03:02:31;;;;;;;23.55;16.00;;;7.10;99.90;;;;;;5059245;28;20254;-78
2021/04/18 03:05:00;;;;;;;26.50;15.95;;;7.10;99.90;;;;;;5059081;28;20206;-78
2021/04/18 03:07:26;;;;;;;22.55;17.42;;;7.10;99.90;;;;;;5059361;28;20298;-79
2021/04/18 03:09:52;;;;;;;28.17;17.75;;;7.10;99.90;;;;;;5059183;28;20222;-79
2021/04/18 03:12:18;;;;;;;28.98;17.40;;;7.10;99.90;;;;;;5059463;28;20230;-79
2021/04/18 03:14:44;;;;;;;27.58;17.25;;;7.00;99.90;;;;;;5059625;28;20643;-79
2021/04/18 03:17:10;;;;;;;21.23;16.15;;;6.90;99.90;;;;;;5059325;28;20747;-79
2021/04/18 03:19:36;;;;;;;29.48;19.13;;;7.00;99.90;;;;;;5059020;28;20206;-78
2021/04/18 03:22:03;;;;;;;26.00;17.20;;;7.00;99.90;;;;;;5065819;28;20253;-79
2021/04/18 03:24:29;;;;;;;26.27;18.70;;;6.80;99.90;;;;;;5064113;28;20202;-78
2021/04/18 03:26:55;;;;;;;31.70;19.42;;;6.70;99.90;;;;;;5058282;28;20215;-78
2021/04/18 03:29:21;;;;;;;29.83;18.80;;;6.60;99.90;;;;;;5059541;28;20219;-78
2021/04/18 03:31:47;;;;;;;27.75;19.23;;;6.80;99.90;;;;;;5058333;28;20206;-78
2021/04/18 03:34:13;;;;;;;36.55;19.70;;;6.50;99.90;;;;;;5058375;28;20654;-78
2021/04/18 03:36:40;;;;;;;27.50;19.13;;;6.60;99.90;;;;;;5058799;28;20728;-78
2021/04/18 03:39:06;;;;;;;30.40;19.90;;;6.60;99.90;;;;;;5058896;28;20231;-78
2021/04/18 03:41:32;;;;;;;30.60;20.85;;;6.70;99.90;;;;;;5058647;28;20203;-79
2021/04/18 03:43:59;;;;;;;27.23;20.13;;;6.60;99.90;;;;;;5058382;28;20223;-79
2021/04/18 03:46:25;;;;;;;31.10;18.80;;;6.60;99.90;;;;;;5060797;28;20214;-77
2021/04/18 03:48:51;;;;;;;33.63;20.08;;;6.60;99.90;;;;;;5059129;28;20318;-78
2021/04/18 03:51:17;;;;;;;40.83;21.33;;;6.60;99.90;;;;;;5058504;28;20203;-78
2021/04/18 03:53:43;;;;;;;33.15;20.73;;;6.60;99.90;;;;;;5058501;28;20596;-78
2021/04/18 03:56:10;;;;;;;39.25;21.77;;;6.60;99.90;;;;;;5058425;28;20246;-78
2021/04/18 03:58:36;;;;;;;33.38;21.63;;;6.40;99.90;;;;;;5057569;28;20588;-78
2021/04/18 04:01:03;;;;;;;38.60;22.50;;;6.60;99.90;;;;;;5057749;28;20198;-78
2021/04/18 04:03:29;;;;;;;37.35;22.73;;;6.60;99.90;;;;;;5057809;28;20219;-78
2021/04/18 04:05:55;;;;;;;42.35;22.85;;;6.60;99.90;;;;;;5057808;28;20230;-78
2021/04/18 04:08:21;;;;;;;47.00;25.65;;;6.60;99.90;;;;;;5057878;28;20230;-78
2021/04/18 04:10:47;;;;;;;44.38;23.42;;;6.50;99.90;;;;;;5058352;28;20231;-78
2021/04/18 04:13:14;;;;;;;37.92;21.52;;;6.60;99.90;;;;;;5058084;28;20246;-78
2021/04/18 04:15:40;;;;;;;41.53;23.25;;;6.50;99.90;;;;;;5058007;28;20613;-78
2021/04/18 04:18:06;;;;;;;47.53;25.52;;;6.40;99.90;;;;;;5070179;28;20641;-77
2021/04/18 04:20:32;;;;;;;44.10;24.90;;;6.20;99.90;;;;;;5066622;28;20663;-78
2021/04/18 04:22:58;;;;;;;50.20;26.35;;;6.00;99.90;;;;;;5057430;28;20265;-78
2021/04/18 04:25:24;;;;;;;42.45;24.52;;;6.00;99.90;;;;;;5057481;28;20207;-78
2021/04/18 04:27:51;;;;;;;43.60;24.10;;;6.20;99.90;;;;;;5057938;28;20226;-78
2021/04/18 04:30:19;;;;;;;52.80;28.37;;;6.20;99.90;;;;;;5056802;28;20475;-78
2021/04/18 04:32:45;;;;;;;47.88;28.15;;;5.90;99.90;;;;;;5075925;22;20492;-82
2021/04/18 04:35:12;;;;;;;53.97;32.40;;;5.90;99.90;;;;;;5069745;28;20572;-83
2021/04/18 04:37:38;;;;;;;43.75;27.77;;;6.00;99.90;;;;;;5067360;28;20444;-82
2021/04/18 04:40:05;;;;;;;49.75;26.88;;;6.00;99.90;;;;;;5064321;28;20195;-84
2021/04/18 04:42:31;;;;;;;44.80;25.15;;;5.90;99.90;;;;;;5059823;28;20231;-81
2021/04/18 04:44:57;;;;;;;44.20;26.10;;;6.00;99.90;;;;;;5061024;28;20257;-83
2021/04/18 04:47:24;;;;;;;46.80;25.60;;;6.00;99.90;;;;;;5061996;28;20203;-83
2021/04/18 04:49:50;;;;;;;44.80;26.98;;;5.80;99.90;;;;;;5066591;28;20222;-81
2021/04/18 04:52:16;;;;;;;54.42;25.88;;;6.20;99.90;;;;;;5065184;28;20207;-82
2021/04/18 04:54:42;;;;;;;44.75;26.45;;;6.30;99.90;;;;;;5075050;28;20199;-84
2021/04/18 04:57:09;;;;;;;45.75;24.58;;;6.00;99.90;;;;;;5079217;28;20172;-81
2021/04/18 04:59:36;;;;;;;49.85;28.77;;;5.80;99.90;;;;;;5078690;28;20206;-81
2021/04/18 05:02:03;;;;;;;49.67;27.52;;;6.00;99.90;;;;;;5077265;28;20214;-83
2021/04/18 05:04:30;;;;;;;46.90;26.85;;;6.00;99.90;;;;;;5077470;28;20191;-83
2021/04/18 05:06:56;;;;;;;54.58;29.50;;;6.40;99.90;;;;;;5079919;28;20206;-83
2021/04/18 05:09:22;;;;;;;55.80;29.45;;;6.20;99.90;;;;;;5079033;28;20248;-83
2021/04/18 05:11:48;;;;;;;46.50;27.83;;;6.20;99.90;;;;;;5067373;28;20214;-83
2021/04/18 05:14:15;;;;;;;49.00;26.55;;;6.20;99.90;;;;;;5070322;28;20234;-82
2021/04/18 05:16:41;;;;;;;47.20;24.95;;;6.20;99.90;;;;;;5072431;28;20207;-83
2021/04/18 05:19:07;;;;;;;45.85;26.50;;;6.10;99.90;;;;;;5074746;28;20432;-82
2021/04/18 05:21:33;;;;;;;50.25;27.08;;;6.10;99.90;;;;;;5075035;28;20426;-82
2021/04/18 05:24:00;;;;;;;54.20;28.20;;;6.20;99.90;;;;;;5065125;28;20219;-83
2021/04/18 05:26:26;;;;;;;54.90;26.95;;;6.20;99.90;;;;;;5061542;28;20589;-84
2021/04/18 05:28:53;;;;;;;58.45;28.77;;;6.30;99.90;;;;;;5061587;28;20223;-82
2021/04/18 05:31:20;;;;;;;57.10;29.75;;;6.40;99.90;;;;;;5059962;28;20576;-82
2021/04/18 05:33:46;;;;;;;73.90;31.38;;;6.40;99.90;;;;;;5059206;28;20231;-82
2021/04/18 05:36:12;;;;;;;65.18;29.58;;;6.20;99.90;;;;;;5060051;28;20211;-83
2021/04/18 05:38:39;;;;;;;53.58;28.58;;;6.50;99.90;;;;;;5061239;28;20199;-82
2021/04/18 05:41:06;;;;;;;54.17;26.85;;;;;;;;;;5060674;28;20207;-84
2021/04/18 05:43:32;;;;;;;61.90;28.80;;;6.40;99.90;;;;;;5060470;28;20230;-85
2021/04/18 05:45:58;;;;;;;50.33;29.02;;;6.40;99.90;;;;;;5059977;28;20601;-84
2021/04/18 05:48:24;;;;;;;58.33;31.42;;;6.50;99.90;;;;;;5059796;28;20203;-83
2021/04/18 05:50:50;;;;;;;62.40;28.80;;;6.40;99.90;;;;;;5068996;28;20203;-81
2021/04/18 05:53:17;;;;;;;50.42;28.52;;;6.40;99.90;;;;;;5072447;28;20226;-82
2021/04/18 05:55:44;;;;;;;50.10;29.02;;;6.30;99.90;;;;;;5070205;28;20210;-83
2021/04/18 05:58:11;;;;;;;50.00;27.48;;;6.20;99.90;;;;;;5066228;28;20293;-85
2021/04/18 06:00:37;;;;;;;58.00;28.95;;;6.20;99.90;;;;;;5060913;28;20213;-82
2021/04/18 06:03:04;;;;;;;54.65;28.77;;;6.30;99.90;;;;;;5065121;28;20439;-83
2021/04/18 06:05:30;;;;;;;58.22;29.67;;;6.30;99.90;;;;;;5064543;28;20731;-84
2021/04/18 06:07:57;;;;;;;54.08;28.73;;;6.40;99.90;;;;;;5068576;28;20203;-83
2021/04/18 06:10:23;;;;;;;61.45;31.95;;;6.30;99.90;;;;;;5064003;28;20885;-84
2021/04/18 06:12:50;;;;;;;59.72;28.75;;;6.40;99.90;;;;;;5069796;28;20269;-83
2021/04/18 06:15:16;;;;;;;49.55;26.80;;;6.50;99.90;;;;;;5072564;28;20206;-84
2021/04/18 06:17:43;;;;;;;49.08;25.05;;;6.50;99.90;;;;;;5070859;28;20203;-84
2021/04/18 06:20:10;;;;;;;45.85;24.00;;;6.30;99.90;;;;;;5068946;28;20198;-84
2021/04/18 06:22:37;;;;;;;50.28;25.40;;;6.60;99.90;;;;;;5067200;28;20563;-83
2021/04/18 06:25:04;;;;;;;48.22;25.83;;;6.70;99.90;;;;;;5065708;28;20592;-82
2021/04/18 06:27:31;;;;;;;53.28;27.73;;;6.60;99.90;;;;;;5069785;28;20218;-82
2021/04/18 06:29:59;;;;;;;57.45;29.05;;;6.50;99.90;;;;;;5065137;28;20467;-84
2021/04/18 06:32:25;;;;;;;55.65;29.67;;;6.40;99.90;;;;;;5068365;28;20918;-84
2021/04/18 06:34:51;;;;;;;50.05;27.52;;;6.60;99.90;;;;;;5068402;28;20195;-82
2021/04/18 06:37:17;;;;;;;51.83;25.40;;;6.40;99.90;;;;;;5066043;28;20213;-84
2021/04/18 06:39:44;;;;;;;55.33;28.90;;;6.30;99.90;;;;;;5066164;28;20210;-83
2021/04/18 06:42:17;;;;;;;62.55;30.05;;;6.10;99.90;;;;;;5067737;28;20202;-83
2021/04/18 06:44:44;;;;;;;71.07;28.65;;;6.20;99.90;;;;;;5069030;28;20194;-84
2021/04/18 06:47:15;;;;;;;58.65;28.67;;;6.20;99.90;;;;;;5067124;28;20436;-84
2021/04/18 06:49:41;;;;;;;60.58;28.90;;;7.00;99.90;;;;;;5067125;28;20227;-84
2021/04/18 06:52:08;;;;;;;57.75;29.83;;;;;;;;;;5066895;28;20669;-84
2021/04/18 06:54:34;;;;;;;67.40;33.20;;;;;;;;;;5062226;28;20495;-84
2021/04/18 06:57:04;;;;;;;62.85;29.33;;;;;;;;;;5063571;28;20207;-84
2021/04/18 06:59:31;;;;;;;61.30;27.10;;;;;;;;;;5061781;28;20280;-84
2021/04/18 07:02:01;;;;;;;56.15;29.02;;;;;;;;;;5060554;28;20670;-84
2021/04/18 07:04:28;;;;;;;54.20;27.38;;;;;;;;;;5060291;28;20199;-84
2021/04/18 07:06:55;;;;;;;63.97;28.85;;;6.50;99.90;;;;;;5061004;28;20268;-85
2021/04/18 07:09:23;;;;;;;55.90;25.88;;;6.40;99.90;;;;;;5058825;28;20366;-84
2021/04/18 07:11:50;;;;;;;49.22;24.90;;;6.70;99.90;;;;;;5061683;28;20209;-84
2021/04/18 07:14:27;;;;;;;47.42;25.13;;;6.60;99.90;;;;;;5061308;28;20274;-83
2021/04/18 07:17:06;;;;;;;56.95;28.33;;;6.60;99.90;;;;;;5061885;28;20222;-84
2021/04/18 07:19:34;;;;;;;61.30;28.63;;;6.70;99.90;;;;;;5061868;28;20225;-84
2021/04/18 07:22:01;;;;;;;58.95;27.35;;;6.30;99.90;;;;;;5062930;28;20215;-85
2021/04/18 07:24:31;;;;;;;52.85;26.23;;;6.60;99.90;;;;;;5070115;28;20293;-83
2021/04/18 07:27:01;;;;;;;47.17;25.23;;;6.60;99.90;;;;;;5073750;28;20226;-83
2021/04/18 07:29:30;;;;;;;57.38;28.73;;;6.60;99.90;;;;;;5073039;28;20215;-83
2021/04/18 07:32:00;;;;;;;55.70;25.45;;;;;;;;;;5071063;28;20270;-83
2021/04/18 07:34:34;;;;;;;59.40;28.40;;;6.60;99.90;;;;;;5068041;28;20202;-82
2021/04/18 07:37:12;;;;;;;52.20;26.42;;;6.50;99.90;;;;;;5064983;28;20187;-83
2021/04/18 07:39:53;;;;;;;57.83;26.30;;;6.50;99.90;;;;;;5065539;28;20274;-83
2021/04/18 07:42:27;;;;;;;52.45;27.80;;;;;;;;;;5065326;28;20258;-83
2021/04/18 07:45:06;;;;;;;46.53;24.00;;;6.50;99.90;;;;;;5067103;28;20289;-84
2021/04/18 07:47:39;;;;;;;44.50;23.73;;;6.50;99.90;;;;;;5067283;28;20285;-83
2021/04/18 07:50:07;;;;;;;47.97;23.50;;;6.50;99.90;;;;;;5070485;28;20211;-83
2021/04/18 07:52:43;;;;;;;43.40;23.88;;;6.40;99.90;;;;;;5078525;28;20214;-84
2021/04/18 07:55:10;;;;;;;46.72;23.13;;;;;;;;;;5070718;28;20186;-83
2021/04/18 07:57:40;;;;;;;41.08;22.52;;;;;;;;;;5063865;28;20573;-82
2021/04/18 08:00:08;;;;;;;42.30;22.30;;;6.30;99.90;;;;;;5063174;28;20203;-84
2021/04/18 08:02:35;;;;;;;44.95;22.15;;;;;;;;;;5063452;28;20219;-85
2021/04/18 08:05:02;;;;;;;42.53;23.42;;;;;;;;;;5063266;28;20199;-85
2021/04/18 08:07:29;;;;;;;39.05;21.30;;;;;;;;;;5065177;28;20211;-83
2021/04/18 08:10:23;;;;;;;42.65;23.75;;;6.40;99.90;;;;;;5066167;28;20250;-84
2021/04/18 08:13:08;;;;;;;46.50;23.67;;;6.40;99.90;;;;;;5057735;28;20223;-84
2021/04/18 08:15:37;;;;;;;40.25;21.70;;;6.40;99.90;;;;;;5064642;28;20184;-83
2021/04/18 08:18:05;;;;;;;38.92;22.85;;;6.40;99.90;;;;;;5063020;28;20549;-83
2021/04/18 08:20:34;;;;;;;40.88;24.83;;;6.40;99.90;;;;;;5063656;28;20239;-84
2021/04/18 08:23:02;;;;;;;45.13;27.23;;;6.40;99.90;;;;;;5065198;28;20234;-83
2021/04/18 08:25:30;;;;;;;44.65;23.65;;;6.70;99.90;;;;;;5066912;28;20214;-84
2021/04/18 08:28:12;;;;;;;41.63;23.08;;;6.50;99.90;;;;;;5066525;28;20203;-85
2021/04/18 08:31:00;;;;;;;44.53;22.75;;;6.50;99.90;;;;;;5067971;28;20218;-85
2021/04/18 08:33:48;;;;;;;44.00;22.20;;;6.60;99.90;;;;;;5067439;28;20607;-83
2021/04/18 08:36:17;;;;;;;43.65;25.17;;;7.00;99.90;;;;;;5065511;28;20207;-84
2021/04/18 08:38:45;;;;;;;39.72;23.48;;;6.80;99.90;;;;;;5072638;28;20203;-83
2021/04/18 08:41:14;;;;;;;34.50;21.55;;;6.80;99.90;;;;;;5070206;28;20207;-84
2021/04/18 08:43:41;;;;;;;38.35;21.25;;;6.70;99.90;;;;;;5065081;28;20226;-84
2021/04/18 08:46:07;;;;;;;32.08;20.55;;;6.70;99.90;;;;;;5066409;28;20199;-85
2021/04/18 08:48:33;;;;;;;31.80;20.67;;;6.70;99.90;;;;;;5066047;28;20200;-85
2021/04/18 08:51:02;;;;;;;38.33;20.02;;;6.80;99.90;;;;;;5067501;28;20276;-84
2021/04/18 08:53:29;;;;;;;34.50;21.33;;;6.80;99.90;;;;;;5071398;28;20273;-84
2021/04/18 08:55:58;;;;;;;29.85;20.17;;;6.80;99.90;;;;;;5075921;28;20199;-83
2021/04/18 08:58:36;;;;;;;31.55;19.42;;;6.90;99.90;;;;;;5075849;28;20210;-84
2021/04/18 09:01:07;;;;;;;32.50;20.58;;;6.80;99.90;;;;;;5074512;28;20211;-82
2021/04/18 09:03:34;;;;;;;34.58;19.85;;;6.90;99.90;;;;;;5073614;28;20223;-83
2021/04/18 09:06:08;;;;;;;31.27;19.95;;;6.90;99.90;;;;;;5068518;28;20662;-83
2021/04/18 09:08:34;;;;;;;33.38;19.83;;;6.50;99.90;;;;;;5065242;28;20282;-83
2021/04/18 09:11:05;;;;;;;24.17;17.83;;;7.10;99.90;;;;;;5063662;28;20214;-85
2021/04/18 09:13:31;;;;;;;32.20;19.58;;;7.00;99.90;;;;;;5064736;28;20227;-84
2021/04/18 09:15:58;;;;;;;27.25;19.63;;;6.60;99.90;;;;;;5066482;28;20214;-84
2021/04/18 09:18:25;;;;;;;26.73;17.60;;;6.80;99.90;;;;;;5062642;28;20690;-83
2021/04/18 09:21:13;;;;;;;28.67;17.63;;;6.90;99.90;;;;;;5062983;28;20210;-83
2021/04/18 09:23:55;;;;;;;29.02;17.80;;;6.80;99.90;;;;;;5061834;28;20218;-83
2021/04/18 09:26:22;;;;;;;22.88;18.10;;;7.20;99.90;;;;;;5068440;28;20214;-84
2021/04/18 09:29:10;;;;;;;28.50;16.55;;;6.90;99.90;;;;;;5062402;28;20273;-83
2021/04/18 09:31:55;;;;;;;27.33;18.80;;;7.10;99.90;;;;;;5062270;28;20213;-82
2021/04/18 09:34:21;;;;;;;22.35;16.88;;;7.00;99.90;;;;;;5074155;28;20231;-83
2021/04/18 09:36:50;;;;;;;29.38;17.60;;;7.20;99.90;;;;;;5074210;28;20230;-80
2021/04/18 09:39:16;;;;;;;24.23;17.65;;;7.20;99.90;;;;;;5075416;28;20203;-80
2021/04/18 09:41:43;;;;;;;28.25;17.75;;;7.20;99.90;;;;;;5075510;28;20207;-82
2021/04/18 09:44:25;;;;;;;26.23;18.55;;;7.40;99.90;;;;;;5073770;28;20222;-82
2021/04/18 09:46:53;;;;;;;22.58;16.60;;;7.60;99.90;;;;;;5071251;28;20195;-83
2021/04/18 09:49:19;;;;;;;25.20;15.95;;;7.60;99.90;;;;;;5076640;28;20227;-82
2021/04/18 09:51:53;;;;;;;24.20;16.42;;;7.70;99.90;;;;;;5076319;28;20183;-83
2021/04/18 09:54:28;;;;;;;22.35;15.73;;;7.80;99.90;;;;;;5063755;28;20710;-83
2021/04/18 09:57:18;;;;;;;23.20;15.63;;;7.90;99.90;;;;;;5060893;28;20193;-83
2021/04/18 10:00:00;;;;;;;20.58;15.18;;;8.00;99.90;;;;;;5058783;28;20194;-82
2021/04/18 10:02:27;;;;;;;24.13;15.98;;;8.00;99.90;;;;;;5058185;28;20223;-83
2021/04/18 10:05:07;;;;;;;23.65;16.08;;;8.10;99.90;;;;;;5058411;28;20272;-83
2021/04/18 10:07:34;;;;;;;20.75;16.70;;;8.40;99.90;;;;;;5059079;28;20501;-83
2021/04/18 10:10:00;;;;;;;21.85;15.80;;;8.40;99.90;;;;;;5060520;28;20574;-83
2021/04/18 10:12:26;;;;;;;20.70;15.13;;;8.60;99.90;;;;;;5060601;28;20225;-81
2021/04/18 10:15:03;;;;;;;17.85;13.95;;;8.70;99.90;;;;;;5061973;28;20195;-82
2021/04/18 10:17:35;;;;;;;19.05;15.52;;;9.10;99.90;;;;;;5059906;28;20452;-82
2021/04/18 10:20:01;;;;;;;16.60;14.07;;;9.00;99.90;;;;;;5062089;28;20210;-81
2021/04/18 10:22:27;;;;;;;19.00;15.13;;;9.20;99.90;;;;;;5062237;28;20480;-82
2021/04/18 10:24:54;;;;;;;17.40;13.70;;;9.20;99.90;;;;;;5062097;28;20203;-83
2021/04/18 10:27:22;;;;;;;16.80;14.18;;;9.30;99.90;;;;;;5062756;28;20453;-84
2021/04/18 10:29:49;;;;;;;21.73;15.13;;;9.20;99.90;;;;;;5061927;28;20227;-82
2021/04/18 10:32:16;;;;;;;15.20;12.45;;;8.90;99.90;;;;;;5061417;28;20199;-82
2021/04/18 10:35:16;;;;;;;19.35;14.38;;;8.90;99.90;;;;;;5103591;22;20227;-84
2021/04/18 10:37:52;;;;;;;18.20;13.03;;;9.00;99.90;;;;;;5063974;28;20183;-82
2021/04/18 10:40:39;;;;;;;16.70;14.90;;;9.40;99.90;;;;;;5064510;28;20441;-82
2021/04/18 10:43:12;;;;;;;16.47;12.40;;;;;;;;;;5065256;28;20469;-82
2021/04/18 10:45:44;;;;;;;17.50;13.43;;;;;;;;;;5064036;28;20450;-82
2021/04/18 10:48:13;;;;;;;15.77;13.20;;;;;;;;;;5063424;28;20443;-83
2021/04/18 10:50:40;;;;;;;14.87;12.50;;;9.40;99.90;;;;;;5064320;28;20605;-84
2021/04/18 10:53:10;;;;;;;16.13;13.03;;;9.10;99.90;;;;;;5064348;28;20985;-82
2021/04/18 10:58:34;;;;;;;15.20;13.67;;;;;;;;;;5054242;28;20438;-81
2021/04/18 11:01:04;;;;;;;17.03;12.80;;;;;;;;;;5062405;28;20420;-80
2021/04/18 11:03:31;;;;;;;14.93;12.77;;;;;;;;;;5062001;28;20535;-82
2021/04/18 11:05:58;;;;;;;20.63;14.90;;;;;;;;;;5062106;28;20446;-81
2021/04/18 11:08:24;;;;;;;15.03;12.83;;;9.70;99.90;;;;;;5067230;28;20424;-81
2021/04/18 11:10:51;;;;;;;14.37;12.50;;;9.80;99.90;;;;;;5066803;28;21021;-82
2021/04/18 11:13:17;;;;;;;14.93;12.33;;;9.90;99.90;;;;;;5067977;28;20444;-82
2021/04/18 11:15:43;;;;;;;14.40;12.90;;;10.10;99.90;;;;;;5067545;28;20445;-82
2021/04/18 11:18:10;;;;;;;15.97;13.40;;;10.10;99.90;;;;;;5068289;28;20441;-82
2021/04/18 11:20:36;;;;;;;13.77;11.40;;;10.30;99.90;;;;;;5070586;28;20430;-82
2021/04/18 11:23:03;;;;;;;16.40;12.37;;;10.20;99.90;;;;;;5073922;28;20461;-81
2021/04/18 11:25:30;;;;;;;15.87;13.13;;;10.30;99.90;;;;;;5075822;28;20434;-82
2021/04/18 11:27:56;;;;;;;15.50;13.33;;;10.90;99.90;;;;;;5078414;28;20445;-81
2021/04/18 11:30:22;;;;;;;13.43;11.77;;;10.70;99.90;;;;;;5078623;28;20496;-82
2021/04/18 11:32:49;;;;;;;19.50;13.60;;;11.10;99.90;;;;;;5076349;28;20445;-80
2021/04/18 11:35:18;;;;;;;15.80;12.57;;;10.60;99.90;;;;;;5075497;28;20423;-80
2021/04/18 11:37:44;;;;;;;13.23;11.50;;;11.00;99.90;;;;;;5078241;28;20428;-80
2021/04/18 11:40:14;;;;;;;17.10;13.70;;;10.30;99.90;;;;;;5077955;28;20449;-82
2021/04/18 11:42:40;;;;;;;16.10;12.33;;;10.90;99.90;;;;;;5077844;28;20452;-82
2021/04/18 11:45:08;;;;;;;16.20;13.57;;;10.40;99.90;;;;;;5077334;28;20396;-81
2021/04/18 11:47:34;;;;;;;17.03;13.23;;;10.70;99.90;;;;;;5079239;28;20425;-82
2021/04/18 11:50:00;;;;;;;18.40;13.50;;;10.70;99.90;;;;;;5076827;28;20595;-82
2021/04/18 11:52:26;;;;;;;17.10;13.30;;;11.30;99.90;;;;;;5076240;28;20459;-83
2021/04/18 11:54:52;;;;;;;15.63;12.50;;;10.10;99.90;;;;;;5077931;28;20466;-81
2021/04/18 11:57:20;;;;;;;16.20;13.63;;;10.70;99.90;;;;;;5075170;28;20429;-83
2021/04/18 11:59:46;;;;;;;15.70;14.03;;;;;;;;;;5075063;28;20469;-83
2021/04/18 12:02:13;;;;;;;15.37;13.70;;;11.40;99.90;;;;;;5073079;28;20460;-82
2021/04/18 12:04:40;;;;;;;17.00;13.03;;;11.30;99.90;;;;;;5071494;28;20500;-81
2021/04/18 12:07:08;;;;;;;17.47;13.57;;;11.20;99.90;;;;;;5072498;28;20430;-83
2021/04/18 12:09:34;;;;;;;14.87;13.47;;;11.20;99.90;;;;;;5067832;28;20488;-84
2021/04/18 12:12:01;;;;;;;17.00;12.33;;;11.60;99.90;;;;;;5066504;28;20459;-82
2021/04/18 12:14:28;;;;;;;17.00;14.00;;;11.50;99.90;;;;;;5067099;28;20470;-81
2021/04/18 12:16:54;;;;;;;15.20;12.67;;;11.60;99.90;;;;;;5066335;28;20450;-83
2021/04/18 12:19:21;;;;;;;22.43;15.30;;;11.80;99.90;;;;;;5069775;28;20442;-84
2021/04/18 12:21:47;;;;;;;16.83;13.63;;;;;;;;;;5066945;28;20442;-83
2021/04/18 12:24:42;;;;;;;17.17;13.73;;;12.00;99.90;;;;;;5068092;28;20894;-86
2021/04/18 12:27:14;;;;;;;15.93;14.23;;;;;;;;;;5068417;28;20444;-86
2021/04/18 12:30:10;;;;;;;16.40;13.60;;;11.80;99.90;;;;;;5071119;28;20458;-85
2021/04/18 12:35:09;;;;;;;18.23;13.93;;;;;;;;;;5208763;22;20497;-84
2021/04/18 12:37:50;;;;;;;27.75;20.30;;;;;;;;;;5066419;28;20455;-85
2021/04/18 12:40:22;;;;;;;15.60;13.90;;;;;;;;;;5070221;28;20194;-85
2021/04/18 12:42:49;;;;;;;19.03;14.90;;;;;;;;;;5072336;28;20428;-83
2021/04/18 12:45:16;;;;;;;16.50;14.20;;;;;;;;;;5067785;28;20449;-83
2021/04/18 12:47:44;;;;;;;17.93;14.17;;;11.50;99.90;;;;;;5067616;28;20457;-83
2021/04/18 12:50:11;;;;;;;16.63;14.93;;;11.70;99.90;;;;;;5067201;28;20472;-83
2021/04/18 12:52:38;;;;;;;19.43;15.00;;;11.90;99.90;;;;;;5068053;28;20478;-83
2021/04/18 12:55:06;;;;;;;18.87;13.90;;;12.10;99.90;;;;;;5073403;28;20548;-86